URO601F LFLX-EGHH
Flight info
| Callsign | URO601F |
|---|---|
| Flight time | 0h 54m |
| Altitude | 18000 |
| Route | SOPIL A34 AMB/N0474F260 DCT ORIST Y110 THRED |
| Aircraft | A346/H-SADE1E2E3FGHIJ2J3J4J5M1P2RWXY/EB1D1 |
Departure
| Time | 2026-05-09 11:29 |
|---|---|
| Airport | Châteauroux Déols airport (LFLX) |
Arrival
| Time | 2026-05-09 12:23 |
|---|---|
| Airport | Bournemouth Airport (EGHH) |
| Time | Latitude | Longitude | Altitude | Speed | Heading |
|---|---|---|---|---|---|
| 2026-05-09 11:10 | 46.85708 | 1.71758 | 533 ft | 0 kts | 288° |
| 2026-05-09 11:24 | 46.85708 | 1.71757 | 533 ft | 0 kts | 288° |
| 2026-05-09 11:24 | 46.85719 | 1.71744 | 533 ft | 4 kts | 345° |
| 2026-05-09 11:25 | 46.85741 | 1.71776 | 533 ft | 6 kts | 77° |
| 2026-05-09 11:25 | 46.85722 | 1.71858 | 533 ft | 10 kts | 126° |
| 2026-05-09 11:25 | 46.85670 | 1.71948 | 533 ft | 12 kts | 153° |
| 2026-05-09 11:25 | 46.85598 | 1.71893 | 533 ft | 14 kts | 225° |
| 2026-05-09 11:26 | 46.85523 | 1.71784 | 534 ft | 17 kts | 225° |
| 2026-05-09 11:26 | 46.85430 | 1.71659 | 534 ft | 19 kts | 213° |
| 2026-05-09 11:26 | 46.85315 | 1.71600 | 534 ft | 14 kts | 195° |
| 2026-05-09 11:26 | 46.85216 | 1.71558 | 535 ft | 16 kts | 197° |
| 2026-05-09 11:27 | 46.85132 | 1.71535 | 535 ft | 12 kts | 173° |
| 2026-05-09 11:27 | 46.85057 | 1.71609 | 535 ft | 14 kts | 128° |
| 2026-05-09 11:27 | 46.84998 | 1.71741 | 535 ft | 12 kts | 122° |
| 2026-05-09 11:27 | 46.84982 | 1.71819 | 535 ft | 6 kts | 45° |
| 2026-05-09 11:28 | 46.85013 | 1.71859 | 535 ft | 2 kts | 36° |
| 2026-05-09 11:28 | 46.85018 | 1.71865 | 535 ft | 1 kts | 32° |
| 2026-05-09 11:28 | 46.85189 | 1.72026 | 533 ft | 66 kts | 33° |
| 2026-05-09 11:28 | 46.85769 | 1.72580 | 534 ft | 131 kts | 33° |
| 2026-05-09 11:29 | 46.86360 | 1.73144 | 536 ft | 168 kts | 33° |
| 2026-05-09 11:29 | 46.87387 | 1.74117 | 1028 ft | 179 kts | 34° |
| 2026-05-09 11:29 | 46.88422 | 1.75109 | 1831 ft | 178 kts | 35° |
| 2026-05-09 11:29 | 46.89460 | 1.76120 | 2496 ft | 181 kts | 36° |
| 2026-05-09 11:30 | 46.90534 | 1.77161 | 2987 ft | 190 kts | 35° |
| 2026-05-09 11:30 | 46.91667 | 1.78239 | 3479 ft | 200 kts | 34° |
| 2026-05-09 11:30 | 46.92886 | 1.79385 | 3849 ft | 219 kts | 35° |
| 2026-05-09 11:30 | 46.94293 | 1.80617 | 3900 ft | 255 kts | 24° |
| 2026-05-09 11:31 | 46.96155 | 1.80864 | 4111 ft | 286 kts | 347° |
| 2026-05-09 11:31 | 46.97863 | 1.79433 | 5043 ft | 285 kts | 312° |
| 2026-05-09 11:31 | 46.98804 | 1.76940 | 6161 ft | 279 kts | 284° |
| 2026-05-09 11:31 | 46.99076 | 1.74126 | 7116 ft | 279 kts | 273° |
| 2026-05-09 11:32 | 46.99227 | 1.71261 | 7995 ft | 284 kts | 272° |
| 2026-05-09 11:32 | 46.99369 | 1.68362 | 8918 ft | 287 kts | 272° |
| 2026-05-09 11:32 | 46.99516 | 1.65428 | 9893 ft | 289 kts | 272° |
| 2026-05-09 11:32 | 46.99670 | 1.62457 | 10704 ft | 297 kts | 272° |
| 2026-05-09 11:33 | 46.99833 | 1.59343 | 11245 ft | 314 kts | 272° |
| 2026-05-09 11:33 | 47.00006 | 1.56074 | 11716 ft | 332 kts | 272° |
| 2026-05-09 11:33 | 47.00387 | 1.48963 | 12674 ft | 368 kts | 272° |
| 2026-05-09 11:34 | 47.00594 | 1.45118 | 13167 ft | 383 kts | 272° |
| 2026-05-09 11:34 | 47.00806 | 1.41185 | 13971 ft | 388 kts | 272° |
| 2026-05-09 11:34 | 47.01020 | 1.37226 | 14825 ft | 390 kts | 272° |
| 2026-05-09 11:34 | 47.01233 | 1.33254 | 15674 ft | 392 kts | 272° |
| 2026-05-09 11:35 | 47.01445 | 1.29241 | 16507 ft | 395 kts | 272° |
| 2026-05-09 11:35 | 47.01655 | 1.25212 | 17306 ft | 398 kts | 272° |
| 2026-05-09 11:35 | 47.01865 | 1.21147 | 17823 ft | 400 kts | 271° |
| 2026-05-09 11:35 | 47.02084 | 1.17065 | 17966 ft | 402 kts | 273° |
| 2026-05-09 11:36 | 47.02784 | 1.13094 | 17931 ft | 407 kts | 291° |
| 2026-05-09 11:36 | 47.04357 | 1.09606 | 17957 ft | 415 kts | 310° |
| 2026-05-09 11:36 | 47.06652 | 1.07015 | 17966 ft | 422 kts | 329° |
| 2026-05-09 11:36 | 47.09447 | 1.05647 | 17968 ft | 428 kts | 349° |
| 2026-05-09 11:37 | 47.12427 | 1.05497 | 17987 ft | 430 kts | 359° |
| 2026-05-09 11:37 | 47.15388 | 1.05625 | 18020 ft | 435 kts | 0° |
| 2026-05-09 11:37 | 47.18444 | 1.05774 | 18597 ft | 440 kts | 0° |
| 2026-05-09 11:37 | 47.21498 | 1.05902 | 19430 ft | 439 kts | 359° |
| 2026-05-09 11:38 | 47.24577 | 1.06007 | 20160 ft | 442 kts | 359° |
| 2026-05-09 11:38 | 47.27664 | 1.06093 | 20822 ft | 446 kts | 358° |
| 2026-05-09 11:38 | 47.30781 | 1.06168 | 21473 ft | 450 kts | 358° |
| 2026-05-09 11:38 | 47.33927 | 1.06241 | 22133 ft | 454 kts | 358° |
| 2026-05-09 11:39 | 47.37103 | 1.06316 | 22804 ft | 458 kts | 357° |
| 2026-05-09 11:39 | 47.40301 | 1.06188 | 23408 ft | 459 kts | 348° |
| 2026-05-09 11:39 | 47.43389 | 1.05097 | 23939 ft | 454 kts | 335° |
| 2026-05-09 11:40 | 47.48767 | 1.00413 | 25029 ft | 450 kts | 319° |
| 2026-05-09 11:40 | 47.51297 | 0.97677 | 25546 ft | 454 kts | 318° |
| 2026-05-09 11:40 | 47.53851 | 0.94895 | 25926 ft | 457 kts | 317° |
| 2026-05-09 11:40 | 47.56421 | 0.92106 | 25960 ft | 457 kts | 318° |
| 2026-05-09 11:41 | 47.58987 | 0.89332 | 25964 ft | 457 kts | 318° |
| 2026-05-09 11:41 | 47.61565 | 0.86556 | 25972 ft | 457 kts | 318° |
| 2026-05-09 11:41 | 47.64140 | 0.83787 | 25980 ft | 457 kts | 318° |
| 2026-05-09 11:41 | 47.66717 | 0.81019 | 25978 ft | 459 kts | 318° |
| 2026-05-09 11:42 | 47.69308 | 0.78232 | 25980 ft | 459 kts | 318° |
| 2026-05-09 11:42 | 47.71897 | 0.75446 | 25976 ft | 460 kts | 318° |
| 2026-05-09 11:42 | 47.74489 | 0.72654 | 25978 ft | 460 kts | 318° |
| 2026-05-09 11:42 | 47.77079 | 0.69863 | 25976 ft | 460 kts | 318° |
| 2026-05-09 11:43 | 47.79672 | 0.67065 | 25982 ft | 460 kts | 318° |
| 2026-05-09 11:43 | 47.82258 | 0.64269 | 25979 ft | 460 kts | 318° |
| 2026-05-09 11:43 | 47.84848 | 0.61469 | 25979 ft | 460 kts | 318° |
| 2026-05-09 11:43 | 47.87436 | 0.58670 | 25975 ft | 460 kts | 318° |
| 2026-05-09 11:44 | 47.90022 | 0.55868 | 25974 ft | 460 kts | 318° |
| 2026-05-09 11:44 | 47.92608 | 0.53061 | 25973 ft | 460 kts | 318° |
| 2026-05-09 11:44 | 47.95197 | 0.50248 | 25971 ft | 460 kts | 318° |
| 2026-05-09 11:44 | 47.97781 | 0.47436 | 25970 ft | 460 kts | 318° |
| 2026-05-09 11:45 | 48.00361 | 0.44624 | 25970 ft | 460 kts | 318° |
| 2026-05-09 11:45 | 48.02943 | 0.41803 | 25996 ft | 460 kts | 318° |
| 2026-05-09 11:45 | 48.05534 | 0.38970 | 25988 ft | 462 kts | 318° |
| 2026-05-09 11:45 | 48.08128 | 0.36136 | 25982 ft | 462 kts | 318° |
| 2026-05-09 11:46 | 48.10726 | 0.33294 | 25975 ft | 462 kts | 318° |
| 2026-05-09 11:46 | 48.13324 | 0.30448 | 25973 ft | 462 kts | 318° |
| 2026-05-09 11:46 | 48.15917 | 0.27603 | 25968 ft | 462 kts | 318° |
| 2026-05-09 11:46 | 48.18514 | 0.24749 | 25977 ft | 462 kts | 318° |
| 2026-05-09 11:47 | 48.21107 | 0.21894 | 25981 ft | 462 kts | 318° |
| 2026-05-09 11:47 | 48.23702 | 0.19032 | 25974 ft | 463 kts | 319° |
| 2026-05-09 11:47 | 48.26292 | 0.16169 | 25991 ft | 463 kts | 319° |
| 2026-05-09 11:47 | 48.28854 | 0.13340 | 25994 ft | 464 kts | 319° |
| 2026-05-09 11:48 | 48.31487 | 0.10431 | 25994 ft | 464 kts | 319° |
| 2026-05-09 11:48 | 48.34053 | 0.07592 | 25995 ft | 463 kts | 319° |
| 2026-05-09 11:48 | 48.36648 | 0.04714 | 25976 ft | 463 kts | 319° |
| 2026-05-09 11:48 | 48.39242 | 0.01834 | 25974 ft | 463 kts | 319° |
| 2026-05-09 11:49 | 48.41834 | -0.01050 | 26009 ft | 464 kts | 319° |
| 2026-05-09 11:49 | 48.44432 | -0.03947 | 26001 ft | 466 kts | 319° |
| 2026-05-09 11:49 | 48.47046 | -0.06872 | 25994 ft | 469 kts | 319° |
| 2026-05-09 11:49 | 48.49672 | -0.09805 | 25991 ft | 469 kts | 319° |
| 2026-05-09 11:50 | 48.52299 | -0.12739 | 25989 ft | 470 kts | 319° |
| 2026-05-09 11:50 | 48.54920 | -0.15670 | 25990 ft | 469 kts | 319° |
| 2026-05-09 11:50 | 48.57549 | -0.18616 | 25994 ft | 469 kts | 319° |
| 2026-05-09 11:50 | 48.60171 | -0.21558 | 25993 ft | 469 kts | 319° |
| 2026-05-09 11:51 | 48.62797 | -0.24509 | 25993 ft | 469 kts | 319° |
| 2026-05-09 11:51 | 48.65414 | -0.27455 | 26005 ft | 469 kts | 319° |
| 2026-05-09 11:51 | 48.68037 | -0.30425 | 26002 ft | 472 kts | 320° |
| 2026-05-09 11:51 | 48.70672 | -0.33400 | 26003 ft | 473 kts | 320° |
| 2026-05-09 11:52 | 48.73309 | -0.36374 | 25997 ft | 473 kts | 320° |
| 2026-05-09 11:52 | 48.75948 | -0.39354 | 25997 ft | 473 kts | 320° |
| 2026-05-09 11:52 | 48.78581 | -0.42334 | 25999 ft | 473 kts | 320° |
| 2026-05-09 11:52 | 48.81223 | -0.45330 | 26000 ft | 473 kts | 320° |
| 2026-05-09 11:53 | 48.83820 | -0.48280 | 26003 ft | 473 kts | 320° |
| 2026-05-09 11:53 | 48.86449 | -0.51271 | 26003 ft | 473 kts | 320° |
| 2026-05-09 11:53 | 48.89081 | -0.54269 | 26003 ft | 473 kts | 320° |
| 2026-05-09 11:53 | 48.91713 | -0.57272 | 26009 ft | 473 kts | 320° |
| 2026-05-09 11:54 | 48.94345 | -0.60279 | 26010 ft | 473 kts | 320° |
| 2026-05-09 11:54 | 48.96972 | -0.63285 | 26011 ft | 473 kts | 320° |
| 2026-05-09 11:54 | 48.99602 | -0.66297 | 26013 ft | 473 kts | 320° |
| 2026-05-09 11:54 | 49.02227 | -0.69310 | 26013 ft | 472 kts | 320° |
| 2026-05-09 11:55 | 49.04855 | -0.72329 | 26014 ft | 472 kts | 320° |
| 2026-05-09 11:56 | 49.17989 | -0.87483 | 26019 ft | 474 kts | 320° |
| 2026-05-09 11:56 | 49.20616 | -0.90528 | 26030 ft | 474 kts | 320° |
| 2026-05-09 11:56 | 49.23242 | -0.93575 | 26004 ft | 474 kts | 320° |
| 2026-05-09 11:57 | 49.25867 | -0.96621 | 25765 ft | 472 kts | 320° |
| 2026-05-09 11:57 | 49.28482 | -0.99660 | 25503 ft | 470 kts | 320° |
| 2026-05-09 11:57 | 49.31073 | -1.02676 | 25163 ft | 467 kts | 320° |
| 2026-05-09 11:57 | 49.33652 | -1.05682 | 24736 ft | 464 kts | 320° |
| 2026-05-09 11:58 | 49.36216 | -1.08675 | 24203 ft | 462 kts | 320° |
| 2026-05-09 11:58 | 49.38761 | -1.11651 | 23823 ft | 456 kts | 320° |
| 2026-05-09 11:58 | 49.41267 | -1.14584 | 23385 ft | 450 kts | 320° |
| 2026-05-09 11:58 | 49.43744 | -1.17489 | 22919 ft | 445 kts | 320° |
| 2026-05-09 11:59 | 49.46192 | -1.20363 | 22473 ft | 440 kts | 320° |
| 2026-05-09 11:59 | 49.48605 | -1.23200 | 22053 ft | 435 kts | 321° |
| 2026-05-09 11:59 | 49.50997 | -1.26016 | 21628 ft | 430 kts | 321° |
| 2026-05-09 11:59 | 49.53361 | -1.28803 | 21226 ft | 426 kts | 321° |
| 2026-05-09 12:00 | 49.55672 | -1.31529 | 20814 ft | 422 kts | 321° |
| 2026-05-09 12:00 | 49.57987 | -1.34265 | 20401 ft | 418 kts | 321° |
| 2026-05-09 12:00 | 49.60286 | -1.36985 | 19979 ft | 415 kts | 320° |
| 2026-05-09 12:00 | 49.62568 | -1.39687 | 19531 ft | 412 kts | 320° |
| 2026-05-09 12:01 | 49.64835 | -1.42382 | 19124 ft | 410 kts | 320° |
| 2026-05-09 12:01 | 49.67091 | -1.45058 | 18699 ft | 408 kts | 321° |
| 2026-05-09 12:01 | 49.69338 | -1.47734 | 18258 ft | 406 kts | 321° |
| 2026-05-09 12:01 | 49.71569 | -1.50390 | 17810 ft | 404 kts | 320° |
| 2026-05-09 12:02 | 49.73788 | -1.53037 | 17397 ft | 401 kts | 320° |
| 2026-05-09 12:02 | 49.75986 | -1.55663 | 16973 ft | 398 kts | 321° |
| 2026-05-09 12:02 | 49.78173 | -1.58271 | 16559 ft | 395 kts | 321° |
| 2026-05-09 12:02 | 49.80348 | -1.60871 | 16130 ft | 393 kts | 321° |
| 2026-05-09 12:03 | 49.82507 | -1.63450 | 15699 ft | 391 kts | 320° |
| 2026-05-09 12:03 | 49.84667 | -1.66048 | 15278 ft | 389 kts | 320° |
| 2026-05-09 12:03 | 49.86801 | -1.68613 | 14875 ft | 387 kts | 321° |
| 2026-05-09 12:03 | 49.88930 | -1.71170 | 14472 ft | 385 kts | 321° |
| 2026-05-09 12:04 | 49.91042 | -1.73708 | 14044 ft | 383 kts | 321° |
| 2026-05-09 12:04 | 49.93148 | -1.76236 | 13590 ft | 382 kts | 321° |
| 2026-05-09 12:04 | 49.95245 | -1.78765 | 13134 ft | 380 kts | 321° |
| 2026-05-09 12:04 | 49.97329 | -1.81277 | 12702 ft | 377 kts | 322° |
| 2026-05-09 12:05 | 49.99585 | -1.83314 | 12249 ft | 375 kts | 339° |
| 2026-05-09 12:05 | 50.02103 | -1.84201 | 11844 ft | 370 kts | 356° |
| 2026-05-09 12:05 | 50.04659 | -1.84056 | 11470 ft | 366 kts | 6° |
| 2026-05-09 12:05 | 50.07180 | -1.83663 | 11077 ft | 363 kts | 7° |
| 2026-05-09 12:06 | 50.09687 | -1.83258 | 10808 ft | 355 kts | 7° |
| 2026-05-09 12:06 | 50.12068 | -1.82886 | 10681 ft | 342 kts | 8° |
| 2026-05-09 12:06 | 50.14373 | -1.82310 | 10575 ft | 329 kts | 12° |
| 2026-05-09 12:06 | 50.16553 | -1.81488 | 10432 ft | 317 kts | 16° |
| 2026-05-09 12:07 | 50.18631 | -1.80572 | 10377 ft | 304 kts | 17° |
| 2026-05-09 12:07 | 50.20624 | -1.79668 | 10250 ft | 293 kts | 18° |
| 2026-05-09 12:07 | 50.22545 | -1.78791 | 10174 ft | 282 kts | 18° |
| 2026-05-09 12:07 | 50.24402 | -1.77953 | 10118 ft | 275 kts | 18° |
| 2026-05-09 12:08 | 50.26230 | -1.77122 | 10042 ft | 273 kts | 18° |
| 2026-05-09 12:08 | 50.28063 | -1.76288 | 9690 ft | 275 kts | 18° |
| 2026-05-09 12:08 | 50.29897 | -1.75462 | 9361 ft | 274 kts | 18° |
| 2026-05-09 12:08 | 50.31723 | -1.74635 | 9076 ft | 272 kts | 18° |
| 2026-05-09 12:09 | 50.33537 | -1.73811 | 8790 ft | 270 kts | 18° |
| 2026-05-09 12:09 | 50.35338 | -1.73002 | 8510 ft | 268 kts | 18° |
| 2026-05-09 12:09 | 50.37129 | -1.72192 | 8235 ft | 267 kts | 18° |
| 2026-05-09 12:10 | 50.42427 | -1.69789 | 7409 ft | 262 kts | 18° |
| 2026-05-09 12:10 | 50.44177 | -1.68991 | 7143 ft | 261 kts | 18° |
| 2026-05-09 12:10 | 50.45886 | -1.68217 | 7071 ft | 249 kts | 18° |
| 2026-05-09 12:11 | 50.47550 | -1.67736 | 6961 ft | 244 kts | 355° |
| 2026-05-09 12:11 | 50.49171 | -1.68417 | 6842 ft | 241 kts | 342° |
| 2026-05-09 12:11 | 50.50729 | -1.69370 | 6720 ft | 240 kts | 340° |
| 2026-05-09 12:11 | 50.52281 | -1.70335 | 6599 ft | 240 kts | 342° |
| 2026-05-09 12:12 | 50.53844 | -1.71257 | 6467 ft | 239 kts | 343° |
| 2026-05-09 12:12 | 50.55412 | -1.72147 | 6349 ft | 240 kts | 343° |
| 2026-05-09 12:12 | 50.56980 | -1.73009 | 6215 ft | 239 kts | 344° |
| 2026-05-09 12:12 | 50.58547 | -1.73861 | 6085 ft | 237 kts | 343° |
| 2026-05-09 12:13 | 50.60104 | -1.74704 | 5967 ft | 237 kts | 344° |
| 2026-05-09 12:13 | 50.61664 | -1.75546 | 5828 ft | 236 kts | 343° |
| 2026-05-09 12:13 | 50.63216 | -1.76387 | 5704 ft | 235 kts | 344° |
| 2026-05-09 12:13 | 50.64761 | -1.77215 | 5563 ft | 234 kts | 344° |
| 2026-05-09 12:14 | 50.66300 | -1.78040 | 5430 ft | 233 kts | 343° |
| 2026-05-09 12:14 | 50.67831 | -1.78865 | 5305 ft | 232 kts | 343° |
| 2026-05-09 12:14 | 50.69361 | -1.79694 | 5175 ft | 232 kts | 343° |
| 2026-05-09 12:14 | 50.70887 | -1.80524 | 5051 ft | 231 kts | 345° |
| 2026-05-09 12:15 | 50.72414 | -1.81342 | 4924 ft | 232 kts | 344° |
| 2026-05-09 12:15 | 50.73938 | -1.82160 | 4926 ft | 231 kts | 344° |
| 2026-05-09 12:15 | 50.75459 | -1.82979 | 4926 ft | 230 kts | 344° |
| 2026-05-09 12:15 | 50.76917 | -1.83927 | 4898 ft | 226 kts | 327° |
| 2026-05-09 12:16 | 50.77849 | -1.85820 | 4847 ft | 217 kts | 291° |
| 2026-05-09 12:16 | 50.78081 | -1.88120 | 4695 ft | 208 kts | 275° |
| 2026-05-09 12:16 | 50.78167 | -1.90374 | 4480 ft | 203 kts | 273° |
| 2026-05-09 12:16 | 50.78236 | -1.92560 | 4278 ft | 201 kts | 274° |
| 2026-05-09 12:17 | 50.78321 | -1.94756 | 4054 ft | 199 kts | 275° |
| 2026-05-09 12:17 | 50.78419 | -1.96933 | 3857 ft | 198 kts | 275° |
| 2026-05-09 12:17 | 50.78522 | -1.99098 | 3651 ft | 196 kts | 276° |
| 2026-05-09 12:17 | 50.78629 | -2.01257 | 3444 ft | 196 kts | 276° |
| 2026-05-09 12:18 | 50.78736 | -2.03418 | 3247 ft | 196 kts | 276° |
| 2026-05-09 12:18 | 50.78811 | -2.05542 | 3000 ft | 190 kts | 264° |
| 2026-05-09 12:18 | 50.78384 | -2.07417 | 2791 ft | 177 kts | 230° |
| 2026-05-09 12:18 | 50.77443 | -2.08615 | 2727 ft | 174 kts | 198° |
| 2026-05-09 12:19 | 50.76663 | -2.08895 | 2679 ft | 168 kts | 177° |
| 2026-05-09 12:19 | 50.75552 | -2.08534 | 2622 ft | 162 kts | 148° |
| 2026-05-09 12:19 | 50.74742 | -2.07386 | 2506 ft | 155 kts | 111° |
| 2026-05-09 12:19 | 50.74579 | -2.05761 | 2344 ft | 152 kts | 86° |
| 2026-05-09 12:20 | 50.74723 | -2.04105 | 2162 ft | 152 kts | 77° |
| 2026-05-09 12:20 | 50.74988 | -2.02477 | 2042 ft | 151 kts | 75° |
| 2026-05-09 12:20 | 50.75280 | -2.00903 | 1953 ft | 152 kts | 74° |
| 2026-05-09 12:20 | 50.75567 | -1.99320 | 1829 ft | 147 kts | 76° |
| 2026-05-09 12:21 | 50.75796 | -1.97755 | 1775 ft | 146 kts | 77° |
| 2026-05-09 12:21 | 50.76017 | -1.96185 | 1529 ft | 146 kts | 76° |
| 2026-05-09 12:21 | 50.76276 | -1.94647 | 1325 ft | 144 kts | 75° |
| 2026-05-09 12:21 | 50.76544 | -1.93114 | 1072 ft | 144 kts | 75° |
| 2026-05-09 12:22 | 50.76794 | -1.91585 | 893 ft | 144 kts | 77° |
| 2026-05-09 12:22 | 50.77042 | -1.90055 | 674 ft | 143 kts | 77° |
| 2026-05-09 12:22 | 50.77285 | -1.88524 | 468 ft | 143 kts | 75° |
| 2026-05-09 12:22 | 50.77547 | -1.87004 | 336 ft | 142 kts | 75° |
| 2026-05-09 12:23 | 50.77796 | -1.85513 | 110 ft | 139 kts | 76° |
| 2026-05-09 12:23 | 50.78018 | -1.84165 | 50 ft | 93 kts | 75° |
| 2026-05-09 12:23 | 50.78119 | -1.83575 | 51 ft | 39 kts | 75° |
| 2026-05-09 12:23 | 50.78178 | -1.83226 | 53 ft | 27 kts | 75° |
| 2026-05-09 12:24 | 50.78222 | -1.82958 | 51 ft | 16 kts | 75° |
| 2026-05-09 12:24 | 50.78224 | -1.82816 | 48 ft | 10 kts | 109° |
| 2026-05-09 12:24 | 50.78222 | -1.82748 | 52 ft | 6 kts | 49° |
| 2026-05-09 12:24 | 50.78243 | -1.82753 | 51 ft | 2 kts | 298° |
| 2026-05-09 12:25 | 50.78241 | -1.82825 | 50 ft | 12 kts | 261° |
| 2026-05-09 12:25 | 50.78221 | -1.82973 | 48 ft | 16 kts | 256° |
| 2026-05-09 12:25 | 50.78192 | -1.83154 | 49 ft | 18 kts | 255° |
| 2026-05-09 12:25 | 50.78155 | -1.83366 | 47 ft | 21 kts | 255° |
| 2026-05-09 12:26 | 50.78113 | -1.83607 | 49 ft | 24 kts | 255° |
| 2026-05-09 12:26 | 50.78077 | -1.83802 | 52 ft | 10 kts | 253° |
| 2026-05-09 12:26 | 50.78094 | -1.83910 | 50 ft | 11 kts | 329° |
| 2026-05-09 12:26 | 50.78172 | -1.83946 | 54 ft | 13 kts | 348° |
| 2026-05-09 12:27 | 50.78269 | -1.83983 | 54 ft | 16 kts | 346° |
| 2026-05-09 12:27 | 50.78387 | -1.84031 | 54 ft | 18 kts | 346° |
| 2026-05-09 12:27 | 50.78498 | -1.84076 | 53 ft | 15 kts | 345° |
| 2026-05-09 12:27 | 50.78576 | -1.84109 | 53 ft | 6 kts | 345° |
| 2026-05-09 12:28 | 50.78608 | -1.84128 | 49 ft | 5 kts | 320° |
| 2026-05-09 12:28 | 50.78614 | -1.84173 | 49 ft | 5 kts | 261° |
| 2026-05-09 12:28 | 50.78609 | -1.84220 | 51 ft | 2 kts | 257° |
| 2026-05-09 12:28 | 50.78605 | -1.84245 | 54 ft | 2 kts | 256° |
| 2026-05-09 12:29 | 50.78604 | -1.84249 | 54 ft | 0 kts | 256° |